Mount Pleasant, Tennessee
Current Conditions -  °F | °C
As of 10:35 PM on Sunday 25 Jan 2015 (Local Time) from KSYI Reporting Station
Overcast Overcast  
Wind Chill: 40°   Ceiling: 2100
Heat Index: 45°   Visibility: 10mi
Dew Point: 43°   Wind: 8mph
Humidity: 93%   Direction: 260°W
Pressure: 29.74"   Gusts: NA
Location:  35.53°N, 87.21°W
Report Text: KSYI 260435Z AUTO 26007KT 10SM OVC021 07/06 A2974 RMK
Loading
Personal Weather Stations






























Interactive Weather Map New forecast layout! Learn more

10-Day Weather Forecast

Advertisements
Track Severe Weather on mobile